Aviation Digital Data Service (ADDS)

Output produced by METARs form (0034 UTC 24 March 2019)
found at http://aviationweather.gov/metar/data/
 
METAR text: EYKA 240020Z AUTO 28009KT 9000 NCD 05/03 Q1018
Conditions at: EYKA (KAUNAS , LT) observed 0020 UTC 24 March 2019
Temperature: 5.0°C (41°F)
Dewpoint: 3.0°C (37°F) [RH = 87%]
Pressure (altimeter): 30.06 inches Hg (1018.0 mb)
Winds: from the W (280 degrees) at 10 MPH (9 knots; 4.6 m/s)
Visibility: 6 miles ( 9 km)
Ceiling: at least 12,000 feet AGL
Clouds: sky clear below 12,000 feet AGL
Weather: no significant weather observed at this time

METAR text: EYKA 232350Z AUTO 27012KT 250V310 9000 BKN013/// 05/03 Q1019
Conditions at: EYKA (KAUNAS , LT) observed 2350 UTC 23 March 2019
Temperature: 5.0°C (41°F)
Dewpoint: 3.0°C (37°F) [RH = 87%]
Pressure (altimeter): 30.09 inches Hg (1019.0 mb)
Winds: from the W (270 degrees) at 14 MPH (12 knots; 6.2 m/s)
Visibility: 6 miles ( 9 km)
Ceiling: 1300 feet AGL
Clouds: broken clouds at 1300 feet AGL
Weather: no significant weather observed at this time

METAR text: EYKA 232320Z AUTO 27009KT 8000 BKN013/// 06/03 Q1019
Conditions at: EYKA (KAUNAS , LT) observed 2320 UTC 23 March 2019
Temperature: 6.0°C (43°F)
Dewpoint: 3.0°C (37°F) [RH = 81%]
Pressure (altimeter): 30.09 inches Hg (1019.0 mb)
Winds: from the W (270 degrees) at 10 MPH (9 knots; 4.6 m/s)
Visibility: 5 miles ( 8 km)
Ceiling: 1300 feet AGL
Clouds: broken clouds at 1300 feet AGL
Weather: no significant weather observed at this time

METAR text: EYKA 232250Z AUTO 28008KT 250V320 8000 OVC014/// 06/04 Q1019
Conditions at: EYKA (KAUNAS , LT) observed 2250 UTC 23 March 2019
Temperature: 6.0°C (43°F)
Dewpoint: 4.0°C (39°F) [RH = 87%]
Pressure (altimeter): 30.09 inches Hg (1019.0 mb)
Winds: from the W (280 degrees) at 9 MPH (8 knots; 4.1 m/s)
Visibility: 5 miles ( 8 km)
Ceiling: 1400 feet AGL
Clouds: overcast cloud deck at 1400 feet AGL
Weather: no significant weather observed at this time

Forecast for: EYKA (KAUNAS , LT)
Text: TAF EYKA 232307Z 2400/2424 27012KT 7000 SCT020
Forecast period: 0000 to 1800 UTC 24 March 2019
Forecast type: FROM: standard forecast or significant change
Winds: from the W (270 degrees) at 14 MPH (12 knots; 6.2 m/s)
Visibility: 4 miles (7 km)
Ceiling: at least 12,000 feet AGL
Clouds: scattered clouds at 2000 feet AGL
Weather: no significant weather forecast for this period
Text: TEMPO 2400/2403 BKN010
Forecast period: 0000 to 0300 UTC 24 March 2019
Forecast type: TEMPORARY: The following changes expected for less than half the time period
Visibility: missing
Ceiling: 1000 feet AGL
Clouds: broken clouds at 1000 feet AGL
Weather: no significant weather forecast for this period
Text: BECMG 2418/2420 VRB02KT
Forecast period: 1800 to 2000 UTC 24 March 2019
Forecast type: BECOMING: Conditions expected to become as follows by 2000 UTC 24 March 2019
Winds: variable direction winds at 2 MPH (2 knots; 1.0 m/s)
Visibility: 4 miles (7 km)
Ceiling: at least 12,000 feet AGL
Clouds: scattered clouds at 2000 feet AGL
Weather: no significant weather forecast for this period
Text: BECMG 2420/2421 OVC010
Forecast period: 2000 UTC 24 March 2019 to 0000 UTC 25 March 2019
Forecast type: BECOMING: Conditions expected to become as follows by 2100 UTC 24 March 2019
Winds: variable direction winds at 2 MPH (2 knots; 1.0 m/s)
Visibility: 4 miles (7 km)
Ceiling: 1000 feet AGL
Clouds: overcast cloud deck at 1000 feet AGL
Weather: no significant weather forecast for this period
Text: TEMPO 2421/2424 OVC005
Forecast period: 2100 UTC 24 March 2019 to 0000 UTC 25 March 2019
Forecast type: TEMPORARY: The following changes expected for less than half the time period
Visibility: missing
Ceiling: 500 feet AGL
Clouds: overcast cloud deck at 500 feet AGL
Weather: no significant weather forecast for this period